sensor_id;sensor_type;location;lat;lon;timestamp;pressure;altitude;pressure_sealevel;temperature;humidity
5966;BME280;3009;43.224;27.976;2024-02-21T00:00:39;101265.16;;;4.84;100.00
5966;BME280;3009;43.224;27.976;2024-02-21T00:03:08;101264.91;;;4.86;100.00
5966;BME280;3009;43.224;27.976;2024-02-21T00:05:37;101274.25;;;4.88;100.00
5966;BME280;3009;43.224;27.976;2024-02-21T00:08:05;101275.03;;;4.89;100.00
5966;BME280;3009;43.224;27.976;2024-02-21T00:10:35;101276.66;;;4.90;100.00
5966;BME280;3009;43.224;27.976;2024-02-21T00:13:04;101269.66;;;4.84;100.00
5966;BME280;3009;43.224;27.976;2024-02-21T00:15:32;101263.31;;;4.85;100.00
5966;BME280;3009;43.224;27.976;2024-02-21T00:18:01;101277.69;;;4.89;100.00
5966;BME280;3009;43.224;27.976;2024-02-21T00:20:29;101277.41;;;4.85;100.00
5966;BME280;3009;43.224;27.976;2024-02-21T00:22:57;101270.78;;;4.88;100.00
5966;BME280;3009;43.224;27.976;2024-02-21T00:25:26;101269.72;;;4.89;100.00
5966;BME280;3009;43.224;27.976;2024-02-21T00:27:56;101263.84;;;4.87;100.00
5966;BME280;3009;43.224;27.976;2024-02-21T00:30:24;101263.31;;;4.85;100.00
5966;BME280;3009;43.224;27.976;2024-02-21T00:32:53;101259.59;;;4.86;100.00
5966;BME280;3009;43.224;27.976;2024-02-21T00:35:22;101259.28;;;4.82;100.00
5966;BME280;3009;43.224;27.976;2024-02-21T00:37:51;101269.13;;;4.82;100.00
5966;BME280;3009;43.224;27.976;2024-02-21T00:40:20;101264.53;;;4.77;100.00
5966;BME280;3009;43.224;27.976;2024-02-21T00:42:49;101261.56;;;4.73;100.00
5966;BME280;3009;43.224;27.976;2024-02-21T00:45:19;101266.38;;;4.76;100.00
5966;BME280;3009;43.224;27.976;2024-02-21T00:47:47;101265.59;;;4.76;100.00
5966;BME280;3009;43.224;27.976;2024-02-21T00:50:15;101264.84;;;4.81;100.00
5966;BME280;3009;43.224;27.976;2024-02-21T00:52:44;101259.84;;;4.84;100.00
5966;BME280;3009;43.224;27.976;2024-02-21T00:55:12;101263.84;;;4.87;100.00
5966;BME280;3009;43.224;27.976;2024-02-21T00:57:41;101270.31;;;4.91;100.00
5966;BME280;3009;43.224;27.976;2024-02-21T01:00:10;101260.72;;;4.90;100.00
5966;BME280;3009;43.224;27.976;2024-02-21T01:02:40;101257.31;;;4.94;100.00
5966;BME280;3009;43.224;27.976;2024-02-21T01:05:09;101255.69;;;4.93;100.00
5966;BME280;3009;43.224;27.976;2024-02-21T01:07:37;101254.09;;;4.92;100.00
5966;BME280;3009;43.224;27.976;2024-02-21T01:10:07;101245.81;;;4.89;100.00
5966;BME280;3009;43.224;27.976;2024-02-21T01:12:35;101252.19;;;4.88;100.00
5966;BME280;3009;43.224;27.976;2024-02-21T01:15:04;101258.06;;;4.90;100.00
5966;BME280;3009;43.224;27.976;2024-02-21T01:17:33;101247.72;;;4.93;100.00
5966;BME280;3009;43.224;27.976;2024-02-21T01:20:03;101245.38;;;4.97;100.00
5966;BME280;3009;43.224;27.976;2024-02-21T01:22:34;101240.84;;;4.97;100.00
5966;BME280;3009;43.224;27.976;2024-02-21T01:25:03;101243.53;;;4.97;100.00
5966;BME280;3009;43.224;27.976;2024-02-21T01:27:32;101240.06;;;4.97;100.00
5966;BME280;3009;43.224;27.976;2024-02-21T01:30:00;101235.53;;;4.97;100.00
5966;BME280;3009;43.224;27.976;2024-02-21T01:32:29;101240.56;;;4.94;100.00
5966;BME280;3009;43.224;27.976;2024-02-21T01:34:57;101237.66;;;4.95;100.00
5966;BME280;3009;43.224;27.976;2024-02-21T01:37:27;101245.63;;;4.95;100.00
5966;BME280;3009;43.224;27.976;2024-02-21T01:39:56;101240.06;;;4.97;100.00
5966;BME280;3009;43.224;27.976;2024-02-21T01:42:24;101236.09;;;5.00;100.00
5966;BME280;3009;43.224;27.976;2024-02-21T01:44:53;101236.34;;;4.98;100.00
5966;BME280;3009;43.224;27.976;2024-02-21T01:47:21;101236.34;;;4.98;100.00
5966;BME280;3009;43.224;27.976;2024-02-21T01:49:50;101243.28;;;4.99;100.00
5966;BME280;3009;43.224;27.976;2024-02-21T01:52:18;101237.16;;;4.99;100.00
5966;BME280;3009;43.224;27.976;2024-02-21T01:54:48;101244.31;;;4.98;100.00
5966;BME280;3009;43.224;27.976;2024-02-21T01:57:17;101241.16;;;5.01;100.00
5966;BME280;3009;43.224;27.976;2024-02-21T01:59:46;101242.78;;;5.02;100.00
5966;BME280;3009;43.224;27.976;2024-02-21T02:02:15;101235.84;;;5.01;100.00
5966;BME280;3009;43.224;27.976;2024-02-21T02:04:44;101233.44;;;5.00;100.00
5966;BME280;3009;43.224;27.976;2024-02-21T02:07:13;101231.03;;;4.98;100.00
5966;BME280;3009;43.224;27.976;2024-02-21T02:09:42;101227.81;;;4.96;100.00
5966;BME280;3009;43.224;27.976;2024-02-21T02:12:12;101230.72;;;4.94;100.00
5966;BME280;3009;43.224;27.976;2024-02-21T02:14:41;101237.59;;;4.90;100.00
5966;BME280;3009;43.224;27.976;2024-02-21T02:17:09;101240.00;;;4.92;100.00
5966;BME280;3009;43.224;27.976;2024-02-21T02:19:38;101240.50;;;4.89;100.00
5966;BME280;3009;43.224;27.976;2024-02-21T02:22:10;101246.06;;;4.87;100.00
5966;BME280;3009;43.224;27.976;2024-02-21T02:24:43;101230.94;;;4.88;100.00
5966;BME280;3009;43.224;27.976;2024-02-21T02:27:12;101232.03;;;4.92;100.00
5966;BME280;3009;43.224;27.976;2024-02-21T02:29:40;101231.97;;;4.87;100.00
5966;BME280;3009;43.224;27.976;2024-02-21T02:32:09;101240.50;;;4.89;100.00
5966;BME280;3009;43.224;27.976;2024-02-21T02:34:37;101234.88;;;4.85;100.00
5966;BME280;3009;43.224;27.976;2024-02-21T02:37:06;101238.41;;;4.91;100.00
5966;BME280;3009;43.224;27.976;2024-02-21T02:39:34;101239.75;;;4.93;100.00
5966;BME280;3009;43.224;27.976;2024-02-21T02:42:05;101238.69;;;4.94;100.00
5966;BME280;3009;43.224;27.976;2024-02-21T02:44:34;101237.91;;;4.94;100.00
5966;BME280;3009;43.224;27.976;2024-02-21T02:47:03;101227.78;;;4.91;100.00
5966;BME280;3009;43.224;27.976;2024-02-21T02:49:31;101235.25;;;4.94;100.00
5966;BME280;3009;43.224;27.976;2024-02-21T02:52:00;101237.34;;;4.92;100.00
5966;BME280;3009;43.224;27.976;2024-02-21T02:54:28;101240.56;;;4.94;100.00
5966;BME280;3009;43.224;27.976;2024-02-21T02:56:56;101247.22;;;4.96;100.00
5966;BME280;3009;43.224;27.976;2024-02-21T02:59:26;101244.56;;;4.96;100.00
5966;BME280;3009;43.224;27.976;2024-02-21T03:01:54;101246.97;;;4.98;100.00
5966;BME280;3009;43.224;27.976;2024-02-21T03:04:23;101243.28;;;4.99;100.00
5966;BME280;3009;43.224;27.976;2024-02-21T03:06:51;101244.88;;;5.00;100.00
5966;BME280;3009;43.224;27.976;2024-02-21T03:09:20;101243.09;;;5.06;100.00
5966;BME280;3009;43.224;27.976;2024-02-21T03:11:49;101240.69;;;5.04;100.00
5966;BME280;3009;43.224;27.976;2024-02-21T03:14:17;101237.78;;;5.06;100.00
5966;BME280;3009;43.224;27.976;2024-02-21T03:16:47;101238.31;;;5.08;100.00
5966;BME280;3009;43.224;27.976;2024-02-21T03:19:15;101243.38;;;5.09;100.00
5966;BME280;3009;43.224;27.976;2024-02-21T03:21:44;101236.44;;;5.08;100.00
5966;BME280;3009;43.224;27.976;2024-02-21T03:24:13;101235.41;;;5.09;100.00
5966;BME280;3009;43.224;27.976;2024-02-21T03:26:42;101243.38;;;5.09;100.00
5966;BME280;3009;43.224;27.976;2024-02-21T03:29:10;101242.59;;;5.09;100.00
5966;BME280;3009;43.224;27.976;2024-02-21T03:31:39;101234.28;;;5.05;100.00
5966;BME280;3009;43.224;27.976;2024-02-21T03:34:10;101242.53;;;5.04;100.00
5966;BME280;3009;43.224;27.976;2024-02-21T03:36:39;101245.25;;;5.09;100.00
5966;BME280;3009;43.224;27.976;2024-02-21T03:39:07;101253.41;;;5.02;100.00
5966;BME280;3009;43.224;27.976;2024-02-21T03:41:36;101252.91;;;5.05;100.00
5966;BME280;3009;43.224;27.976;2024-02-21T03:44:04;101250.56;;;5.09;100.00
5966;BME280;3009;43.224;27.976;2024-02-21T03:46:32;101246.84;;;5.10;100.00
5966;BME280;3009;43.224;27.976;2024-02-21T03:49:01;101245.75;;;5.06;100.00
5966;BME280;3009;43.224;27.976;2024-02-21T03:51:31;101243.88;;;5.06;100.00
5966;BME280;3009;43.224;27.976;2024-02-21T03:53:59;101238.41;;;4.91;100.00
5966;BME280;3009;43.224;27.976;2024-02-21T03:56:28;101245.06;;;4.93;100.00
5966;BME280;3009;43.224;27.976;2024-02-21T03:58:56;101233.84;;;4.86;100.00
5966;BME280;3009;43.224;27.976;2024-02-21T04:01:25;101247.41;;;4.90;100.00
5966;BME280;3009;43.224;27.976;2024-02-21T04:03:53;101245.81;;;4.89;100.00
5966;BME280;3009;43.224;27.976;2024-02-21T04:06:22;101243.16;;;4.89;100.00
5966;BME280;3009;43.224;27.976;2024-02-21T04:08:52;101243.41;;;4.87;100.00
5966;BME280;3009;43.224;27.976;2024-02-21T04:11:20;101237.59;;;4.90;100.00
5966;BME280;3009;43.224;27.976;2024-02-21T04:13:49;101236.84;;;4.95;100.00
5966;BME280;3009;43.224;27.976;2024-02-21T04:16:18;101245.94;;;4.99;100.00
5966;BME280;3009;43.224;27.976;2024-02-21T04:18:46;101239.56;;;5.00;100.00
5966;BME280;3009;43.224;27.976;2024-02-21T04:21:15;101249.69;;;5.03;100.00
5966;BME280;3009;43.224;27.976;2024-02-21T04:23:57;101245.38;;;4.97;100.00
5966;BME280;3009;43.224;27.976;2024-02-21T04:26:26;101233.69;;;4.98;100.00
5966;BME280;3009;43.224;27.976;2024-02-21T04:28:54;101233.13;;;4.96;100.00
5966;BME280;3009;43.224;27.976;2024-02-21T04:31:23;101237.66;;;4.95;100.00
5966;BME280;3009;43.224;27.976;2024-02-21T04:33:52;101237.03;;;4.88;100.00
5966;BME280;3009;43.224;27.976;2024-02-21T04:36:20;101242.09;;;4.90;100.00
5966;BME280;3009;43.224;27.976;2024-02-21T04:38:49;101237.84;;;4.89;100.00
5966;BME280;3009;43.224;27.976;2024-02-21T04:41:19;101239.44;;;4.90;100.00
5966;BME280;3009;43.224;27.976;2024-02-21T04:43:47;101240.44;;;4.84;100.00
5966;BME280;3009;43.224;27.976;2024-02-21T04:46:16;101241.44;;;4.77;100.00
5966;BME280;3009;43.224;27.976;2024-02-21T04:48:44;101248.00;;;4.70;100.00
5966;BME280;3009;43.224;27.976;2024-02-21T04:51:13;101248.47;;;4.67;100.00
5966;BME280;3009;43.224;27.976;2024-02-21T04:53:41;101251.13;;;4.67;100.00
5966;BME280;3009;43.224;27.976;2024-02-21T04:56:10;101254.84;;;4.66;100.00
5966;BME280;3009;43.224;27.976;2024-02-21T04:58:40;101254.63;;;4.72;100.00
5966;BME280;3009;43.224;27.976;2024-02-21T05:01:08;101244.59;;;4.74;100.00
5966;BME280;3009;43.224;27.976;2024-02-21T05:03:38;101252.56;;;4.74;100.00
5966;BME280;3009;43.224;27.976;2024-02-21T05:06:06;101248.34;;;4.78;100.00
5966;BME280;3009;43.224;27.976;2024-02-21T05:08:36;101254.78;;;4.83;100.00
5966;BME280;3009;43.224;27.976;2024-02-21T05:11:04;101255.25;;;4.79;100.00
5966;BME280;3009;43.224;27.976;2024-02-21T05:13:33;101257.13;;;4.79;100.00
5966;BME280;3009;43.224;27.976;2024-02-21T05:16:04;101248.91;;;4.81;100.00
5966;BME280;3009;43.224;27.976;2024-02-21T05:18:33;101260.56;;;4.79;100.00
5966;BME280;3009;43.224;27.976;2024-02-21T05:21:01;101265.97;;;4.85;100.00
5966;BME280;3009;43.224;27.976;2024-02-21T05:23:30;101266.47;;;4.82;100.00
5966;BME280;3009;43.224;27.976;2024-02-21T05:25:58;101281.41;;;4.88;100.00
5966;BME280;3009;43.224;27.976;2024-02-21T05:28:27;101275.63;;;4.91;100.00
5966;BME280;3009;43.224;27.976;2024-02-21T05:30:55;101276.47;;;4.96;100.00
5966;BME280;3009;43.224;27.976;2024-02-21T05:33:26;101281.84;;;5.02;100.00
5966;BME280;3009;43.224;27.976;2024-02-21T05:35:54;101279.97;;;5.02;100.00
5966;BME280;3009;43.224;27.976;2024-02-21T05:38:22;101283.69;;;5.01;100.00
5966;BME280;3009;43.224;27.976;2024-02-21T05:40:51;101287.16;;;5.02;100.00
5966;BME280;3009;43.224;27.976;2024-02-21T05:43:19;101282.16;;;5.05;100.00
5966;BME280;3009;43.224;27.976;2024-02-21T05:45:48;101285.31;;;5.02;100.00
5966;BME280;3009;43.224;27.976;2024-02-21T05:48:16;101287.09;;;4.96;100.00
5966;BME280;3009;43.224;27.976;2024-02-21T05:50:46;101287.66;;;4.99;100.00
5966;BME280;3009;43.224;27.976;2024-02-21T05:53:15;101289.56;;;5.03;100.00
5966;BME280;3009;43.224;27.976;2024-02-21T05:55:43;101291.09;;;4.99;100.00
5966;BME280;3009;43.224;27.976;2024-02-21T05:58:12;101293.22;;;4.97;100.00
5966;BME280;3009;43.224;27.976;2024-02-21T06:00:40;101296.19;;;5.01;100.00
5966;BME280;3009;43.224;27.976;2024-02-21T06:03:09;101299.16;;;5.04;100.00
5966;BME280;3009;43.224;27.976;2024-02-21T06:05:37;101304.41;;;4.99;100.00
5966;BME280;3009;43.224;27.976;2024-02-21T06:08:08;101300.19;;;5.03;100.00
5966;BME280;3009;43.224;27.976;2024-02-21T06:10:36;101310.84;;;5.03;100.00
5966;BME280;3009;43.224;27.976;2024-02-21T06:13:05;101312.50;;;5.09;100.00
5966;BME280;3009;43.224;27.976;2024-02-21T06:15:33;101318.38;;;5.11;100.00
5966;BME280;3009;43.224;27.976;2024-02-21T06:18:02;101313.63;;;5.13;100.00
5966;BME280;3009;43.224;27.976;2024-02-21T06:20:30;101311.25;;;5.17;100.00
5966;BME280;3009;43.224;27.976;2024-02-21T06:22:59;101314.22;;;5.21;100.00
5966;BME280;3009;43.224;27.976;2024-02-21T06:25:29;101309.72;;;5.21;100.00
5966;BME280;3009;43.224;27.976;2024-02-21T06:27:58;101310.50;;;5.22;100.00
5966;BME280;3009;43.224;27.976;2024-02-21T06:30:26;101320.81;;;5.40;100.00
5966;BME280;3009;43.224;27.976;2024-02-21T06:32:55;101314.75;;;5.45;100.00
5966;BME280;3009;43.224;27.976;2024-02-21T06:35:24;101310.66;;;5.59;100.00
5966;BME280;3009;43.224;27.976;2024-02-21T06:37:52;101302.91;;;5.58;100.00
5966;BME280;3009;43.224;27.976;2024-02-21T06:40:22;101301.75;;;5.76;100.00
5966;BME280;3009;43.224;27.976;2024-02-21T06:42:53;101305.31;;;5.86;100.00
5966;BME280;3009;43.224;27.976;2024-02-21T06:45:21;101303.78;;;5.96;100.00
5966;BME280;3009;43.224;27.976;2024-02-21T06:47:49;101296.44;;;6.08;100.00
5966;BME280;3009;43.224;27.976;2024-02-21T06:50:18;101295.56;;;5.97;100.00
5966;BME280;3009;43.224;27.976;2024-02-21T06:52:46;101294.97;;;6.23;100.00
5966;BME280;3009;43.224;27.976;2024-02-21T06:55:15;101285.84;;;6.56;100.00
5966;BME280;3009;43.224;27.976;2024-02-21T06:57:44;101277.44;;;6.80;100.00
5966;BME280;3009;43.224;27.976;2024-02-21T07:00:15;101279.38;;;7.00;100.00
5966;BME280;3009;43.224;27.976;2024-02-21T07:02:44;101278.88;;;7.08;100.00
5966;BME280;3009;43.224;27.976;2024-02-21T07:05:12;101274.06;;;7.05;100.00
5966;BME280;3009;43.224;27.976;2024-02-21T07:07:41;101282.09;;;7.10;100.00
5966;BME280;3009;43.224;27.976;2024-02-21T07:10:09;101274.09;;;7.10;100.00
5966;BME280;3009;43.224;27.976;2024-02-21T07:12:38;101281.88;;;7.22;100.00
5966;BME280;3009;43.224;27.976;2024-02-21T07:15:09;101285.66;;;7.41;100.00
5966;BME280;3009;43.224;27.976;2024-02-21T07:17:38;101281.69;;;7.59;100.00
5966;BME280;3009;43.224;27.976;2024-02-21T07:20:08;101279.28;;;7.58;100.00
5966;BME280;3009;43.224;27.976;2024-02-21T07:22:36;101269.88;;;7.35;100.00
5966;BME280;3009;43.224;27.976;2024-02-21T07:25:06;101274.16;;;7.41;100.00
5966;BME280;3009;43.224;27.976;2024-02-21T07:27:34;101281.13;;;7.52;100.00
5966;BME280;3009;43.224;27.976;2024-02-21T07:30:05;101268.34;;;7.75;100.00
5966;BME280;3009;43.224;27.976;2024-02-21T07:32:34;101273.13;;;7.73;100.00
5966;BME280;3009;43.224;27.976;2024-02-21T07:35:04;101275.28;;;7.81;100.00
5966;BME280;3009;43.224;27.976;2024-02-21T07:37:37;101278.84;;;6.98;100.00
5966;BME280;3009;43.224;27.976;2024-02-21T07:40:09;101288.00;;;7.17;100.00
5966;BME280;3009;43.224;27.976;2024-02-21T07:42:40;101294.44;;;7.47;100.00
5966;BME280;3009;43.224;27.976;2024-02-21T07:45:12;101292.06;;;7.97;100.00
5966;BME280;3009;43.224;27.976;2024-02-21T07:47:40;101285.94;;;7.76;100.00
5966;BME280;3009;43.224;27.976;2024-02-21T07:50:10;101290.50;;;8.06;100.00
5966;BME280;3009;43.224;27.976;2024-02-21T07:52:39;101287.53;;;8.23;100.00
5966;BME280;3009;43.224;27.976;2024-02-21T07:55:08;101293.41;;;7.89;100.00
5966;BME280;3009;43.224;27.976;2024-02-21T07:57:37;101301.28;;;7.12;100.00
5966;BME280;3009;43.224;27.976;2024-02-21T08:00:06;101300.19;;;7.03;100.00
5966;BME280;3009;43.224;27.976;2024-02-21T08:02:37;101306.19;;;7.46;100.00
5966;BME280;3009;43.224;27.976;2024-02-21T08:05:07;101299.56;;;8.05;100.00
5966;BME280;3009;43.224;27.976;2024-02-21T08:07:37;101297.41;;;8.38;100.00
5966;BME280;3009;43.224;27.976;2024-02-21T08:10:07;101291.22;;;8.58;100.00
5966;BME280;3009;43.224;27.976;2024-02-21T08:12:35;101289.63;;;8.47;100.00
5966;BME280;3009;43.224;27.976;2024-02-21T08:15:04;101277.63;;;8.55;100.00
5966;BME280;3009;43.224;27.976;2024-02-21T08:17:35;101284.00;;;8.64;100.00
5966;BME280;3009;43.224;27.976;2024-02-21T08:20:05;101284.88;;;7.97;100.00
5966;BME280;3009;43.224;27.976;2024-02-21T08:22:34;101281.09;;;8.34;100.00
5966;BME280;3009;43.224;27.976;2024-02-21T08:25:06;101274.97;;;8.44;100.00
5966;BME280;3009;43.224;27.976;2024-02-21T08:27:35;101279.25;;;8.04;100.00
5966;BME280;3009;43.224;27.976;2024-02-21T08:30:06;101275.50;;;7.49;100.00
5966;BME280;3009;43.224;27.976;2024-02-21T08:32:34;101279.25;;;8.20;100.00
5966;BME280;3009;43.224;27.976;2024-02-21T08:35:04;101282.97;;;8.55;100.00
5966;BME280;3009;43.224;27.976;2024-02-21T08:37:33;101279.41;;;8.75;100.00
5966;BME280;3009;43.224;27.976;2024-02-21T08:40:02;101273.44;;;8.98;100.00
5966;BME280;3009;43.224;27.976;2024-02-21T08:42:38;101282.44;;;9.18;100.00
5966;BME280;3009;43.224;27.976;2024-02-21T08:45:08;101287.56;;;8.08;100.00
5966;BME280;3009;43.224;27.976;2024-02-21T08:47:39;101285.91;;;8.38;100.00
5966;BME280;3009;43.224;27.976;2024-02-21T08:50:09;101284.44;;;8.97;100.00
5966;BME280;3009;43.224;27.976;2024-02-21T08:52:53;101281.03;;;9.31;100.00
5966;BME280;3009;43.224;27.976;2024-02-21T08:55:21;101278.75;;;9.53;100.00
5966;BME280;3009;43.224;27.976;2024-02-21T08:57:52;101280.97;;;9.41;100.00
5966;BME280;3009;43.224;27.976;2024-02-21T09:00:21;101277.50;;;9.35;100.00
5966;BME280;3009;43.224;27.976;2024-02-21T09:02:54;101278.84;;;9.33;100.00
5966;BME280;3009;43.224;27.976;2024-02-21T09:05:23;101278.34;;;9.31;100.00
5966;BME280;3009;43.224;27.976;2024-02-21T09:07:52;101277.25;;;8.82;100.00
5966;BME280;3009;43.224;27.976;2024-02-21T09:10:22;101278.38;;;8.65;100.00
5966;BME280;3009;43.224;27.976;2024-02-21T09:12:52;101277.97;;;8.98;100.00
5966;BME280;3009;43.224;27.976;2024-02-21T09:15:20;101287.84;;;9.08;100.00
5966;BME280;3009;43.224;27.976;2024-02-21T09:17:49;101284.94;;;8.99;100.00
5966;BME280;3009;43.224;27.976;2024-02-21T09:20:17;101277.69;;;9.04;100.00
5966;BME280;3009;43.224;27.976;2024-02-21T09:22:46;101279.22;;;9.16;100.00
5966;BME280;3009;43.224;27.976;2024-02-21T09:25:14;101273.56;;;9.28;100.00
5966;BME280;3009;43.224;27.976;2024-02-21T09:27:44;101268.19;;;9.28;100.00
5966;BME280;3009;43.224;27.976;2024-02-21T09:30:14;101273.81;;;9.26;100.00
5966;BME280;3009;43.224;27.976;2024-02-21T09:32:42;101270.56;;;9.34;100.00
5966;BME280;3009;43.224;27.976;2024-02-21T09:35:11;101279.31;;;9.00;100.00
5966;BME280;3009;43.224;27.976;2024-02-21T09:37:40;101262.44;;;9.05;100.00
5966;BME280;3009;43.224;27.976;2024-02-21T09:40:09;101267.41;;;9.22;100.00
5966;BME280;3009;43.224;27.976;2024-02-21T09:42:39;101270.47;;;9.50;100.00
5966;BME280;3009;43.224;27.976;2024-02-21T09:45:19;101272.75;;;9.67;100.00
5966;BME280;3009;43.224;27.976;2024-02-21T09:48:07;101263.53;;;9.83;98.63
5966;BME280;3009;43.224;27.976;2024-02-21T09:50:41;101258.97;;;9.84;97.79
5966;BME280;3009;43.224;27.976;2024-02-21T09:53:12;101258.19;;;8.99;100.00
5966;BME280;3009;43.224;27.976;2024-02-21T09:55:42;101257.00;;;9.60;100.00
5966;BME280;3009;43.224;27.976;2024-02-21T09:58:11;101251.84;;;9.69;100.00
5966;BME280;3009;43.224;27.976;2024-02-21T10:00:40;101255.13;;;9.95;99.86
5966;BME280;3009;43.224;27.976;2024-02-21T10:03:10;101261.50;;;9.99;100.00
5966;BME280;3009;43.224;27.976;2024-02-21T10:05:47;101252.50;;;9.11;100.00
5966;BME280;3009;43.224;27.976;2024-02-21T10:08:17;101253.72;;;9.68;100.00
5966;BME280;3009;43.224;27.976;2024-02-21T10:10:46;101261.59;;;9.89;99.37
5966;BME280;3009;43.224;27.976;2024-02-21T10:13:27;101258.38;;;9.13;100.00
5966;BME280;3009;43.224;27.976;2024-02-21T10:16:03;101256.47;;;8.58;100.00
5966;BME280;3009;43.224;27.976;2024-02-21T10:18:34;101255.91;;;8.72;100.00
5966;BME280;3009;43.224;27.976;2024-02-21T10:21:04;101252.22;;;8.42;100.00
5966;BME280;3009;43.224;27.976;2024-02-21T10:23:43;101254.38;;;8.34;100.00
5966;BME280;3009;43.224;27.976;2024-02-21T10:26:12;101260.84;;;7.97;100.00
5966;BME280;3009;43.224;27.976;2024-02-21T10:28:41;101250.63;;;8.36;100.00
5966;BME280;3009;43.224;27.976;2024-02-21T10:31:21;101250.06;;;8.59;100.00
5966;BME280;3009;43.224;27.976;2024-02-21T10:33:56;101242.13;;;8.23;100.00
5966;BME280;3009;43.224;27.976;2024-02-21T10:36:25;101238.41;;;7.73;100.00
5966;BME280;3009;43.224;27.976;2024-02-21T10:38:54;101242.16;;;7.97;100.00
5966;BME280;3009;43.224;27.976;2024-02-21T10:41:24;101245.88;;;7.76;100.00
5966;BME280;3009;43.224;27.976;2024-02-21T10:43:54;101238.44;;;7.88;100.00
5966;BME280;3009;43.224;27.976;2024-02-21T10:46:24;101245.59;;;8.13;100.00
5966;BME280;3009;43.224;27.976;2024-02-21T10:49:02;101235.16;;;8.32;100.00
5966;BME280;3009;43.224;27.976;2024-02-21T10:51:34;101229.78;;;8.48;100.00
5966;BME280;3009;43.224;27.976;2024-02-21T10:54:19;101227.19;;;7.76;100.00
5966;BME280;3009;43.224;27.976;2024-02-21T10:56:51;101228.78;;;8.08;100.00
5966;BME280;3009;43.224;27.976;2024-02-21T10:59:20;101231.97;;;8.15;100.00
5966;BME280;3009;43.224;27.976;2024-02-21T11:01:49;101222.94;;;7.90;100.00
5966;BME280;3009;43.224;27.976;2024-02-21T11:04:26;101233.06;;;7.93;100.00
5966;BME280;3009;43.224;27.976;2024-02-21T11:06:58;101222.31;;;8.34;100.00
5966;BME280;3009;43.224;27.976;2024-02-21T11:09:31;101220.19;;;8.37;100.00
5966;BME280;3009;43.224;27.976;2024-02-21T11:12:02;101209.72;;;8.40;100.00
5966;BME280;3009;43.224;27.976;2024-02-21T11:14:32;101208.31;;;8.68;100.00
5966;BME280;3009;43.224;27.976;2024-02-21T11:17:02;101209.75;;;8.30;100.00
5966;BME280;3009;43.224;27.976;2024-02-21T11:19:33;101202.03;;;8.23;100.00
5966;BME280;3009;43.224;27.976;2024-02-21T11:22:02;101204.97;;;8.16;100.00
5966;BME280;3009;43.224;27.976;2024-02-21T11:24:32;101202.84;;;8.19;100.00
5966;BME280;3009;43.224;27.976;2024-02-21T11:27:08;101214.13;;;7.59;100.00
5966;BME280;3009;43.224;27.976;2024-02-21T11:29:42;101212.78;;;7.67;100.00
5966;BME280;3009;43.224;27.976;2024-02-21T11:32:11;101206.13;;;7.49;100.00
5966;BME280;3009;43.224;27.976;2024-02-21T11:34:53;101207.19;;;7.42;100.00
5966;BME280;3009;43.224;27.976;2024-02-21T11:37:24;101205.31;;;7.17;100.00
5966;BME280;3009;43.224;27.976;2024-02-21T11:39:53;101203.97;;;7.20;100.00
5966;BME280;3009;43.224;27.976;2024-02-21T11:42:22;101199.16;;;7.32;100.00
5966;BME280;3009;43.224;27.976;2024-02-21T11:44:53;101195.44;;;7.43;100.00
5966;BME280;3009;43.224;27.976;2024-02-21T11:47:24;101187.97;;;7.45;100.00
5966;BME280;3009;43.224;27.976;2024-02-21T11:49:54;101194.13;;;7.41;100.00
5966;BME280;3009;43.224;27.976;2024-02-21T11:52:24;101190.66;;;7.66;100.00
5966;BME280;3009;43.224;27.976;2024-02-21T11:54:54;101187.44;;;7.69;100.00
5966;BME280;3009;43.224;27.976;2024-02-21T11:57:24;101196.25;;;7.44;100.00
5966;BME280;3009;43.224;27.976;2024-02-21T11:59:53;101181.84;;;7.19;100.00
5966;BME280;3009;43.224;27.976;2024-02-21T12:02:26;101193.81;;;7.32;100.00
5966;BME280;3009;43.224;27.976;2024-02-21T12:04:57;101183.72;;;7.70;100.00
5966;BME280;3009;43.224;27.976;2024-02-21T12:07:25;101180.75;;;7.87;100.00
5966;BME280;3009;43.224;27.976;2024-02-21T12:09:59;101179.66;;;7.98;100.00
5966;BME280;3009;43.224;27.976;2024-02-21T12:12:27;101168.25;;;7.67;100.00
5966;BME280;3009;43.224;27.976;2024-02-21T12:14:56;101170.88;;;7.77;100.00
5966;BME280;3009;43.224;27.976;2024-02-21T12:17:25;101170.81;;;8.19;100.00
5966;BME280;3009;43.224;27.976;2024-02-21T12:19:53;101168.47;;;7.86;100.00
5966;BME280;3009;43.224;27.976;2024-02-21T12:22:25;101164.44;;;7.99;100.00
5966;BME280;3009;43.224;27.976;2024-02-21T12:24:53;101170.47;;;8.46;100.00
5966;BME280;3009;43.224;27.976;2024-02-21T12:27:22;101166.09;;;8.65;100.00
5966;BME280;3009;43.224;27.976;2024-02-21T12:29:50;101159.19;;;8.59;100.00
5966;BME280;3009;43.224;27.976;2024-02-21T12:32:19;101161.44;;;8.21;100.00
5966;BME280;3009;43.224;27.976;2024-02-21T12:34:47;101165.00;;;8.66;100.00
5966;BME280;3009;43.224;27.976;2024-02-21T12:37:23;101155.50;;;8.50;100.00
5966;BME280;3009;43.224;27.976;2024-02-21T12:39:52;101161.28;;;8.67;100.00
5966;BME280;3009;43.224;27.976;2024-02-21T12:42:21;101155.97;;;8.57;100.00
5966;BME280;3009;43.224;27.976;2024-02-21T12:44:50;101155.50;;;8.45;100.00
5966;BME280;3009;43.224;27.976;2024-02-21T12:47:19;101164.97;;;7.91;100.00
5966;BME280;3009;43.224;27.976;2024-02-21T12:49:50;101167.44;;;7.25;100.00
5966;BME280;3009;43.224;27.976;2024-02-21T12:52:19;101168.50;;;7.55;100.00
5966;BME280;3009;43.224;27.976;2024-02-21T12:54:49;101176.47;;;7.86;100.00
5966;BME280;3009;43.224;27.976;2024-02-21T12:57:18;101173.03;;;7.65;100.00
5966;BME280;3009;43.224;27.976;2024-02-21T12:59:49;101170.09;;;7.41;100.00
5966;BME280;3009;43.224;27.976;2024-02-21T13:02:18;101169.03;;;7.11;100.00
5966;BME280;3009;43.224;27.976;2024-02-21T13:04:47;101167.94;;;6.97;100.00
5966;BME280;3009;43.224;27.976;2024-02-21T13:07:15;101166.91;;;7.23;100.00
5966;BME280;3009;43.224;27.976;2024-02-21T13:09:44;101166.09;;;7.23;100.00
5966;BME280;3009;43.224;27.976;2024-02-21T13:12:14;101167.69;;;7.24;100.00